EGPE - Inverness-Dalcross
Distance from station: E 5mi, 14km
Updated: 10/20/2017 11:50pm
Mostly Cloudy
Mostly Cloudy
 Wind from SE
Wind: SE 14 mph , 22 km/h
Temperature: 52°F , 11°C
Dew Point: 46°F , 8°C
Humidity: 82%
Barometer: 29.26 inHg , 991 hPa
Clouds: Mostly Cloudy
Visibility: 6 miles , 10 km
Cloud details: Few Clouds 2000 ft
Mostly Cloudy 4200 ft
2017/10/21 06:50 EGPE 210650Z 14012KT 9999 FEW020 BKN042 11/08 Q0991